KDAL

Dallas Love Field Airport

Dallas, Texas, USA
METAR KDAL 231614Z 00000KT 1 3/4SM R13L/5500VP6000FT -RA BR OVC006 07/06 A3019 RMK AO2 VIS NW 1 P0001 T00720061 $
Observed Flight Rules
Feb-23 @ 16:14 UTC (22 minutes ago) Instrument Flight Rules
Wind Visibility Clouds Conditions
Calm 1 3/4 miles
  • Overcast at 600' AGL
  • Light Rain
  • Mist
Temperatures Readings Precipitation
Current 7°C / 45°F
Dewpoint 6°C / 43°F
Humidity 93%
Altimeter 30.19" Hg
Pressure 1022 hPa
Elevation 158
Current Rain 0.01
METAR KDAL 231614Z 00000KT 1 3/4SM R13L/5500VP6000FT -RA BR OVC006 07/06 A3019 RMK AO2 VIS NW 1 P0001 T00720061 $
Observed Flight Rules
Feb-23 @ 16:14 UTC
(22 minutes ago)
IFR
Wind Visibility
Calm 1 3/4 miles
Clouds
  • Overcast at 600' AGL
Conditions
  • Light Rain
  • Mist
Temperature Dewpoint
7°C / 45°F 6°C / 43°F
Humidity Altimeter Pressure
93% 30.19" Hg 1022 hPa
Current Rain
0.01